ADDS METAR Data INFO
IDs: Format: Raw Decoded Include TAF

Data at: 1333 UTC 25 Sep 2017

KCDS 251319Z AUTO 15008KT 8SM VCTS SCT040 BKN048 BKN060 21/19 A2988 RMK AO2 LTG DSNT ALQDS T02110194
KCDS 251253Z AUTO 14008KT 9SM BKN041 BKN049 OVC075 21/19 A2988 RMK AO2 LTG DSNT SW-N SLP096 T02060194
KCDS 251153Z AUTO 13008KT 9SM FEW041 SCT090 21/19 A2988 RMK AO2 SLP096 70041 T02060194 10217 20206 56002
KCDS 251053Z AUTO 15007KT 10SM OVC090 21/19 A2988 RMK AO2 LTG DSNT NW SLP095 T02110194
KCDS 250953Z AUTO 13006KT 10SM OVC055 21/19 A2988 RMK AO2 SLP092 T02110194
KCDS 250853Z AUTO 15005KT 10SM OVC055 21/19 A2988 RMK AO2 SLP095 T02110194 56006
KCDS 250753Z AUTO 14007KT 10SM BKN070 21/19 A2989 RMK AO2 SLP097 T02110194
KCDS 250653Z AUTO 14007KT 10SM BKN060 21/19 A2990 RMK AO2 SLP102 T02110194
KCDS 250553Z AUTO 13006KT 10SM BKN100 21/19 A2990 RMK AO2 SLP103 60000 T02110194 10228 20211 402720206 51003
KCDS 250453Z AUTO 13008KT 10SM FEW100 22/20 A2990 RMK AO2 SLP104 T02170200
KCDS 250353Z AUTO 12006KT 8SM BKN055 22/21 A2990 RMK AO2 SLP105 T02170206
KCDS 250253Z AUTO 13007KT 8SM SCT120 22/21 A2989 RMK AO2 SLP103 60000 T02170206 53004
KCDS 250153Z AUTO 14005KT 10SM FEW110 22/21 A2988 RMK AO2 SLP099 T02170206
KCDS 250053Z AUTO 17007KT 10SM BKN070 OVC100 22/21 A2987 RMK AO2 RAE16B37E48 SLP094 P0000 T02170206
KCDS 242353Z AUTO 16008KT 10SM -RA SCT055 BKN075 BKN090 23/20 A2988 RMK AO2 RAB38 SLP096 P0000 60001 T02280200 10272 20222 56002
KCDS 242253Z AUTO 17010G17KT 10SM FEW049 25/19 A2988 RMK AO2 SLP095 T02500189
KCDS 242153Z AUTO 17012G20KT 10SM FEW030 FEW049 26/19 A2988 RMK AO2 SLP092 T02610189
KCDS 242053Z AUTO 18011KT 10SM FEW028 BKN080 OVC090 26/19 A2989 RMK AO2 SLP095 60001 T02610189 58008
KCDS 241953Z AUTO 18017G24KT 10SM SCT041 BKN060 OVC075 25/18 A2990 RMK AO2 RAE1858 SLP099 P0000 T02500183
KCDS 241853Z AUTO 21010KT 10SM -RA FEW023 SCT029 OVC041 23/21 A2992 RMK AO2 RAB22 SLP106 P0001 T02280206
KCDS 241836Z AUTO 21011KT 8SM -RA SCT022 BKN042 OVC065 23/21 A2991 RMK AO2 RAB22 P0000 T02280206
KCDS 241753Z AUTO 18012G20KT 10SM SCT014 BKN022 24/21 A2991 RMK AO2 RAE02 SLP104 P0000 60040 T02440206 10244 20206 55006
KCDS 241737Z AUTO 17013KT 10SM BKN014 BKN024 OVC075 24/21 A2991 RMK AO2 RAE02 P0000 T02390211
KCDS 241730Z AUTO 17011KT 10SM SCT012 BKN023 OVC080 23/21 A2992 RMK AO2 RAE02 P0000 T02330206
KCDS 241717Z AUTO 19014KT 10SM FEW011 SCT023 BKN080 23/21 A2992 RMK AO2 RAE02 P0000 T02280206
KCDS 241701Z AUTO 17011KT 9SM -RA SCT011 BKN021 BKN080 23/21 A2992 RMK AO2 P0000 T02280211
KCDS 241653Z AUTO 17012KT 6SM -RA BR BKN011 BKN018 OVC023 22/21 A2992 RMK AO2 RAB35 SLP108 P0000 T02220206
KCDS 241621Z AUTO 16011KT 10SM BKN010 BKN120 22/21 A2992 RMK AO2 CIG 006V012 T02220206
KCDS 241614Z AUTO 16010KT 10SM BKN008 BKN120 22/21 A2992 RMK AO2 CIG 006V013 T02220206
KCDS 241610Z AUTO 16010KT 10SM SCT008 SCT018 BKN120 22/21 A2992 RMK AO2 T02220206
KCDS 241553Z AUTO 15008KT 8SM FEW008 BKN015 BKN022 22/20 A2993 RMK AO2 RAE19 SLP112 P0000 T02170200
KCDS 241540Z AUTO 16007KT 8SM FEW009 BKN013 OVC022 21/19 A2993 RMK AO2 RAE19 P0000 T02060194
KCDS 241530Z AUTO 17006KT 8SM SCT020 BKN025 BKN047 21/19 A2994 RMK AO2 RAE19 P0000 T02060194
KCDS 241453Z AUTO 13013KT 6SM -RA BR FEW033 SCT110 21/19 A2991 RMK AO2 SLP106 P0022 60040 T02060194 50014
KCDS 241422Z AUTO 11007KT 3SM RA BR SCT039 BKN095 OVC110 21/20 A2991 RMK AO2 P0020 T02060200
KCDS 241353Z AUTO 00000KT 1 1/2SM RA BR FEW005 BKN055 OVC070 21/20 A2993 RMK AO2 SLP111 P0018 T02060200
KCDS 241342Z AUTO 00000KT 1 1/4SM +RA BR FEW005 BKN055 OVC070 21/20 A2993 RMK AO2 P0014 T02060200
KCDS 241333Z AUTO 24003KT 1 1/2SM +RA BR FEW005 BKN023 OVC065 21/20 A2993 RMK AO2 P0010 T02060200
KCDS 241323Z AUTO 23004KT 2 1/2SM RA BR FEW007 BKN026 OVC060 21/19 A2993 RMK AO2 P0006 T02110194
KCDS 241253Z AUTO 19005KT 10SM -RA OVC060 21/18 A2992 RMK AO2 RAB43 SLP104 P0000 T02110183
KCDS 241153Z AUTO 14010KT 10SM FEW070 BKN100 22/17 A2987 RMK AO2 SLP088 T02220172 10250 20222 55001
KCDS 241053Z AUTO 14010KT 10SM OVC100 23/17 A2986 RMK AO2 SLP083 T02280172
KCDS 240953Z AUTO 16010KT 10SM OVC090 24/17 A2987 RMK AO2 SLP085 T02390172
KCDS 240853Z AUTO 16010KT 10SM OVC090 24/17 A2987 RMK AO2 SLP086 T02390167 50002
KCDS 240753Z AUTO 17011KT 10SM CLR 24/16 A2988 RMK AO2 SLP088 T02390161
KCDS 240653Z AUTO 16013KT 10SM CLR 25/16 A2987 RMK AO2 SLP087 T02500156
KCDS 240553Z AUTO 16010KT 10SM CLR 25/15 A2986 RMK AO2 SLP085 T02500150 10300 20250 403220211 53005
KCDS 240453Z AUTO 14013KT 10SM CLR 26/14 A2986 RMK AO2 SLP082 T02560144
KCDS 240353Z AUTO 14013G22KT 10SM CLR 26/15 A2984 RMK AO2 SLP079 T02610150
KCDS 240253Z AUTO 13017KT 10SM CLR 27/15 A2985 RMK AO2 SLP081 T02720150 53001
KCDS 240153Z AUTO 13013KT 10SM SCT100 SCT110 28/14 A2984 RMK AO2 SLP076 T02780144